sensor_id;sensor_type;location;lat;lon;timestamp;P1;durP1;ratioP1;P2;durP2;ratioP2
12288;SDS011;6207;49.308;7.336;2022-12-18T00:01:17;23.33;;;20.57;;
12288;SDS011;6207;49.308;7.336;2022-12-18T00:03:46;27.33;;;19.90;;
12288;SDS011;6207;49.308;7.336;2022-12-18T00:06:14;24.57;;;21.20;;
12288;SDS011;6207;49.308;7.336;2022-12-18T00:08:42;24.67;;;22.27;;
12288;SDS011;6207;49.308;7.336;2022-12-18T00:11:11;21.23;;;19.03;;
12288;SDS011;6207;49.308;7.336;2022-12-18T00:13:39;21.30;;;19.50;;
12288;SDS011;6207;49.308;7.336;2022-12-18T00:16:08;20.73;;;18.30;;
12288;SDS011;6207;49.308;7.336;2022-12-18T00:18:38;19.73;;;17.83;;
12288;SDS011;6207;49.308;7.336;2022-12-18T00:21:06;17.87;;;16.67;;
12288;SDS011;6207;49.308;7.336;2022-12-18T00:23:36;18.20;;;16.97;;
12288;SDS011;6207;49.308;7.336;2022-12-18T00:26:06;20.10;;;18.27;;
12288;SDS011;6207;49.308;7.336;2022-12-18T00:28:36;20.67;;;18.77;;
12288;SDS011;6207;49.308;7.336;2022-12-18T00:31:03;24.83;;;22.23;;
12288;SDS011;6207;49.308;7.336;2022-12-18T00:33:32;23.13;;;18.10;;
12288;SDS011;6207;49.308;7.336;2022-12-18T00:36:02;24.20;;;21.03;;
12288;SDS011;6207;49.308;7.336;2022-12-18T00:38:42;20.37;;;18.40;;
12288;SDS011;6207;49.308;7.336;2022-12-18T00:41:10;19.93;;;18.10;;
12288;SDS011;6207;49.308;7.336;2022-12-18T00:43:39;21.70;;;19.93;;
12288;SDS011;6207;49.308;7.336;2022-12-18T00:46:06;22.63;;;20.40;;
12288;SDS011;6207;49.308;7.336;2022-12-18T00:48:34;22.37;;;20.20;;
12288;SDS011;6207;49.308;7.336;2022-12-18T00:51:01;19.67;;;18.07;;
12288;SDS011;6207;49.308;7.336;2022-12-18T00:53:28;23.70;;;21.10;;
12288;SDS011;6207;49.308;7.336;2022-12-18T00:55:55;22.00;;;19.90;;
12288;SDS011;6207;49.308;7.336;2022-12-18T00:58:22;19.43;;;17.80;;
12288;SDS011;6207;49.308;7.336;2022-12-18T01:00:48;21.50;;;19.30;;
12288;SDS011;6207;49.308;7.336;2022-12-18T01:03:16;22.63;;;19.87;;
12288;SDS011;6207;49.308;7.336;2022-12-18T01:05:42;23.63;;;21.43;;
12288;SDS011;6207;49.308;7.336;2022-12-18T01:08:09;22.53;;;19.60;;
12288;SDS011;6207;49.308;7.336;2022-12-18T01:10:39;22.57;;;20.50;;
12288;SDS011;6207;49.308;7.336;2022-12-18T01:13:06;22.17;;;20.10;;
12288;SDS011;6207;49.308;7.336;2022-12-18T01:15:33;21.67;;;19.60;;
12288;SDS011;6207;49.308;7.336;2022-12-18T01:18:00;20.43;;;18.73;;
12288;SDS011;6207;49.308;7.336;2022-12-18T01:20:27;20.90;;;18.03;;
12288;SDS011;6207;49.308;7.336;2022-12-18T01:22:54;23.67;;;20.80;;
12288;SDS011;6207;49.308;7.336;2022-12-18T01:25:20;21.27;;;19.20;;
12288;SDS011;6207;49.308;7.336;2022-12-18T01:27:47;25.17;;;20.40;;
12288;SDS011;6207;49.308;7.336;2022-12-18T01:30:14;21.47;;;19.37;;
12288;SDS011;6207;49.308;7.336;2022-12-18T01:32:41;24.97;;;22.23;;
12288;SDS011;6207;49.308;7.336;2022-12-18T01:35:07;22.23;;;20.27;;
12288;SDS011;6207;49.308;7.336;2022-12-18T01:37:34;20.70;;;19.00;;
12288;SDS011;6207;49.308;7.336;2022-12-18T01:40:01;23.57;;;21.10;;
12288;SDS011;6207;49.308;7.336;2022-12-18T01:42:28;20.37;;;18.40;;
12288;SDS011;6207;49.308;7.336;2022-12-18T01:50:19;25.70;;;20.67;;
12288;SDS011;6207;49.308;7.336;2022-12-18T01:52:52;22.83;;;20.63;;
12288;SDS011;6207;49.308;7.336;2022-12-18T01:55:26;22.57;;;20.23;;
12288;SDS011;6207;49.308;7.336;2022-12-18T01:57:57;22.03;;;20.00;;
12288;SDS011;6207;49.308;7.336;2022-12-18T02:00:25;21.13;;;19.40;;
12288;SDS011;6207;49.308;7.336;2022-12-18T02:02:54;20.50;;;18.57;;
12288;SDS011;6207;49.308;7.336;2022-12-18T02:08:10;22.70;;;20.53;;
12288;SDS011;6207;49.308;7.336;2022-12-18T02:19:15;26.33;;;20.37;;
12288;SDS011;6207;49.308;7.336;2022-12-18T02:24:41;24.23;;;21.13;;
12288;SDS011;6207;49.308;7.336;2022-12-18T02:27:20;19.97;;;18.40;;
12288;SDS011;6207;49.308;7.336;2022-12-18T02:29:48;19.47;;;17.93;;
12288;SDS011;6207;49.308;7.336;2022-12-18T02:32:31;22.00;;;20.10;;
12288;SDS011;6207;49.308;7.336;2022-12-18T02:35:02;19.77;;;18.20;;
12288;SDS011;6207;49.308;7.336;2022-12-18T02:37:32;19.40;;;17.83;;
12288;SDS011;6207;49.308;7.336;2022-12-18T02:40:00;21.07;;;19.13;;
12288;SDS011;6207;49.308;7.336;2022-12-18T02:42:30;22.30;;;20.23;;
12288;SDS011;6207;49.308;7.336;2022-12-18T02:44:58;21.27;;;19.50;;
12288;SDS011;6207;49.308;7.336;2022-12-18T02:47:31;21.47;;;19.57;;
12288;SDS011;6207;49.308;7.336;2022-12-18T02:53:10;24.77;;;22.20;;
12288;SDS011;6207;49.308;7.336;2022-12-18T02:55:56;18.83;;;17.40;;
12288;SDS011;6207;49.308;7.336;2022-12-18T03:01:05;19.60;;;17.67;;
12288;SDS011;6207;49.308;7.336;2022-12-18T03:03:51;22.13;;;18.80;;
12288;SDS011;6207;49.308;7.336;2022-12-18T03:06:30;21.30;;;19.50;;
12288;SDS011;6207;49.308;7.336;2022-12-18T03:09:08;20.97;;;19.17;;
12288;SDS011;6207;49.308;7.336;2022-12-18T03:11:39;19.40;;;17.77;;
12288;SDS011;6207;49.308;7.336;2022-12-18T03:14:28;19.67;;;17.73;;
12288;SDS011;6207;49.308;7.336;2022-12-18T03:16:59;22.53;;;20.33;;
12288;SDS011;6207;49.308;7.336;2022-12-18T03:19:31;20.90;;;19.27;;
12288;SDS011;6207;49.308;7.336;2022-12-18T03:22:00;20.70;;;18.73;;
12288;SDS011;6207;49.308;7.336;2022-12-18T03:24:29;19.13;;;17.80;;
12288;SDS011;6207;49.308;7.336;2022-12-18T03:27:02;18.97;;;17.70;;
12288;SDS011;6207;49.308;7.336;2022-12-18T03:29:46;20.80;;;18.57;;
12288;SDS011;6207;49.308;7.336;2022-12-18T03:32:21;19.37;;;17.97;;
12288;SDS011;6207;49.308;7.336;2022-12-18T03:34:53;20.97;;;18.87;;
12288;SDS011;6207;49.308;7.336;2022-12-18T03:37:24;22.90;;;18.73;;
12288;SDS011;6207;49.308;7.336;2022-12-18T03:39:51;21.70;;;19.43;;
12288;SDS011;6207;49.308;7.336;2022-12-18T03:44:57;22.20;;;20.03;;
12288;SDS011;6207;49.308;7.336;2022-12-18T03:47:30;19.93;;;18.07;;
12288;SDS011;6207;49.308;7.336;2022-12-18T03:50:14;19.87;;;18.07;;
12288;SDS011;6207;49.308;7.336;2022-12-18T03:52:57;20.50;;;18.53;;
12288;SDS011;6207;49.308;7.336;2022-12-18T03:55:28;19.07;;;17.73;;
12288;SDS011;6207;49.308;7.336;2022-12-18T03:57:58;19.83;;;17.97;;
12288;SDS011;6207;49.308;7.336;2022-12-18T04:00:27;20.27;;;18.67;;
12288;SDS011;6207;49.308;7.336;2022-12-18T04:02:56;20.40;;;18.70;;
12288;SDS011;6207;49.308;7.336;2022-12-18T04:05:25;19.70;;;17.90;;
12288;SDS011;6207;49.308;7.336;2022-12-18T04:07:54;18.23;;;16.83;;
12288;SDS011;6207;49.308;7.336;2022-12-18T04:10:22;19.90;;;18.40;;
12288;SDS011;6207;49.308;7.336;2022-12-18T04:12:49;19.60;;;18.17;;
12288;SDS011;6207;49.308;7.336;2022-12-18T04:15:16;20.13;;;18.33;;
12288;SDS011;6207;49.308;7.336;2022-12-18T04:17:46;22.80;;;20.80;;
12288;SDS011;6207;49.308;7.336;2022-12-18T04:20:14;20.57;;;18.53;;
12288;SDS011;6207;49.308;7.336;2022-12-18T04:22:42;20.07;;;18.43;;
12288;SDS011;6207;49.308;7.336;2022-12-18T04:25:09;20.27;;;17.50;;
12288;SDS011;6207;49.308;7.336;2022-12-18T04:27:37;20.40;;;18.73;;
12288;SDS011;6207;49.308;7.336;2022-12-18T04:30:04;18.27;;;16.80;;
12288;SDS011;6207;49.308;7.336;2022-12-18T04:32:32;20.40;;;18.63;;
12288;SDS011;6207;49.308;7.336;2022-12-18T04:34:59;18.83;;;17.47;;
12288;SDS011;6207;49.308;7.336;2022-12-18T04:37:26;20.63;;;18.70;;
12288;SDS011;6207;49.308;7.336;2022-12-18T04:39:53;25.00;;;22.20;;
12288;SDS011;6207;49.308;7.336;2022-12-18T04:42:20;23.23;;;20.87;;
12288;SDS011;6207;49.308;7.336;2022-12-18T04:44:46;30.43;;;23.77;;
12288;SDS011;6207;49.308;7.336;2022-12-18T04:47:13;22.40;;;20.60;;
12288;SDS011;6207;49.308;7.336;2022-12-18T04:49:40;22.30;;;18.03;;
12288;SDS011;6207;49.308;7.336;2022-12-18T04:52:07;20.40;;;19.00;;
12288;SDS011;6207;49.308;7.336;2022-12-18T04:54:33;18.33;;;16.93;;
12288;SDS011;6207;49.308;7.336;2022-12-18T04:57:00;20.47;;;18.67;;
12288;SDS011;6207;49.308;7.336;2022-12-18T04:59:27;21.30;;;19.47;;
12288;SDS011;6207;49.308;7.336;2022-12-18T05:01:54;19.50;;;17.80;;
12288;SDS011;6207;49.308;7.336;2022-12-18T05:04:21;20.57;;;18.93;;
12288;SDS011;6207;49.308;7.336;2022-12-18T05:06:47;20.17;;;18.57;;
12288;SDS011;6207;49.308;7.336;2022-12-18T05:09:14;20.70;;;18.70;;
12288;SDS011;6207;49.308;7.336;2022-12-18T05:11:41;25.30;;;17.57;;
12288;SDS011;6207;49.308;7.336;2022-12-18T05:14:08;19.33;;;17.67;;
12288;SDS011;6207;49.308;7.336;2022-12-18T05:16:35;20.30;;;18.57;;
12288;SDS011;6207;49.308;7.336;2022-12-18T05:19:02;27.13;;;19.97;;
12288;SDS011;6207;49.308;7.336;2022-12-18T05:21:29;19.93;;;18.50;;
12288;SDS011;6207;49.308;7.336;2022-12-18T05:23:55;19.97;;;18.03;;
12288;SDS011;6207;49.308;7.336;2022-12-18T05:26:22;21.50;;;18.23;;
12288;SDS011;6207;49.308;7.336;2022-12-18T05:28:49;19.83;;;17.77;;
12288;SDS011;6207;49.308;7.336;2022-12-18T05:31:16;24.60;;;18.93;;
12288;SDS011;6207;49.308;7.336;2022-12-18T05:33:43;22.47;;;20.33;;
12288;SDS011;6207;49.308;7.336;2022-12-18T05:36:09;20.40;;;18.63;;
12288;SDS011;6207;49.308;7.336;2022-12-18T05:38:38;20.60;;;19.03;;
12288;SDS011;6207;49.308;7.336;2022-12-18T05:41:05;20.60;;;18.90;;
12288;SDS011;6207;49.308;7.336;2022-12-18T05:43:33;20.60;;;18.60;;
12288;SDS011;6207;49.308;7.336;2022-12-18T05:46:05;20.80;;;18.40;;
12288;SDS011;6207;49.308;7.336;2022-12-18T05:48:38;19.20;;;17.53;;
12288;SDS011;6207;49.308;7.336;2022-12-18T05:51:09;24.00;;;18.53;;
12288;SDS011;6207;49.308;7.336;2022-12-18T05:53:38;20.77;;;19.17;;
12288;SDS011;6207;49.308;7.336;2022-12-18T05:56:07;19.00;;;17.60;;
12288;SDS011;6207;49.308;7.336;2022-12-18T05:58:35;21.17;;;19.07;;
12288;SDS011;6207;49.308;7.336;2022-12-18T06:01:07;20.73;;;18.87;;
12288;SDS011;6207;49.308;7.336;2022-12-18T06:03:38;21.93;;;19.97;;
12288;SDS011;6207;49.308;7.336;2022-12-18T06:06:14;26.83;;;22.60;;
12288;SDS011;6207;49.308;7.336;2022-12-18T06:08:48;32.57;;;22.93;;
12288;SDS011;6207;49.308;7.336;2022-12-18T06:11:16;22.13;;;20.00;;
12288;SDS011;6207;49.308;7.336;2022-12-18T06:13:51;24.23;;;21.87;;
12288;SDS011;6207;49.308;7.336;2022-12-18T06:16:24;25.53;;;22.80;;
12288;SDS011;6207;49.308;7.336;2022-12-18T06:18:52;19.47;;;17.87;;
12288;SDS011;6207;49.308;7.336;2022-12-18T06:21:19;18.80;;;17.60;;
12288;SDS011;6207;49.308;7.336;2022-12-18T06:23:45;21.73;;;19.70;;
12288;SDS011;6207;49.308;7.336;2022-12-18T06:26:12;20.17;;;18.37;;
12288;SDS011;6207;49.308;7.336;2022-12-18T06:28:39;18.57;;;16.93;;
12288;SDS011;6207;49.308;7.336;2022-12-18T06:31:07;20.87;;;18.33;;
12288;SDS011;6207;49.308;7.336;2022-12-18T06:33:34;19.83;;;17.90;;
12288;SDS011;6207;49.308;7.336;2022-12-18T06:36:07;17.03;;;16.07;;
12288;SDS011;6207;49.308;7.336;2022-12-18T06:38:36;19.37;;;17.80;;
12288;SDS011;6207;49.308;7.336;2022-12-18T06:41:08;16.90;;;15.90;;
12288;SDS011;6207;49.308;7.336;2022-12-18T06:43:36;19.07;;;17.60;;
12288;SDS011;6207;49.308;7.336;2022-12-18T06:46:04;22.97;;;20.67;;
12288;SDS011;6207;49.308;7.336;2022-12-18T06:48:32;19.60;;;18.03;;
12288;SDS011;6207;49.308;7.336;2022-12-18T06:50:59;20.70;;;18.30;;
12288;SDS011;6207;49.308;7.336;2022-12-18T06:53:26;21.30;;;19.40;;
12288;SDS011;6207;49.308;7.336;2022-12-18T06:55:59;19.03;;;17.57;;
12288;SDS011;6207;49.308;7.336;2022-12-18T06:58:34;19.47;;;18.03;;
12288;SDS011;6207;49.308;7.336;2022-12-18T07:01:01;21.07;;;19.47;;
12288;SDS011;6207;49.308;7.336;2022-12-18T07:03:30;18.50;;;17.30;;
12288;SDS011;6207;49.308;7.336;2022-12-18T07:05:57;19.87;;;18.10;;
12288;SDS011;6207;49.308;7.336;2022-12-18T07:08:24;20.47;;;18.90;;
12288;SDS011;6207;49.308;7.336;2022-12-18T07:10:51;20.47;;;18.47;;
12288;SDS011;6207;49.308;7.336;2022-12-18T07:13:21;21.70;;;19.50;;
12288;SDS011;6207;49.308;7.336;2022-12-18T07:15:48;18.63;;;17.27;;
12288;SDS011;6207;49.308;7.336;2022-12-18T07:18:15;17.80;;;16.60;;
12288;SDS011;6207;49.308;7.336;2022-12-18T07:20:42;20.00;;;18.37;;
12288;SDS011;6207;49.308;7.336;2022-12-18T07:23:09;20.97;;;19.00;;
12288;SDS011;6207;49.308;7.336;2022-12-18T07:25:36;21.53;;;20.00;;
12288;SDS011;6207;49.308;7.336;2022-12-18T07:28:03;21.50;;;19.67;;
12288;SDS011;6207;49.308;7.336;2022-12-18T07:30:30;26.87;;;21.33;;
12288;SDS011;6207;49.308;7.336;2022-12-18T07:32:57;20.13;;;18.63;;
12288;SDS011;6207;49.308;7.336;2022-12-18T07:35:24;19.50;;;18.23;;
12288;SDS011;6207;49.308;7.336;2022-12-18T07:37:51;20.67;;;18.77;;
12288;SDS011;6207;49.308;7.336;2022-12-18T07:40:18;23.10;;;21.07;;
12288;SDS011;6207;49.308;7.336;2022-12-18T07:42:44;22.10;;;19.90;;
12288;SDS011;6207;49.308;7.336;2022-12-18T07:45:11;20.03;;;18.00;;
12288;SDS011;6207;49.308;7.336;2022-12-18T07:47:38;18.47;;;17.37;;
12288;SDS011;6207;49.308;7.336;2022-12-18T07:50:07;20.93;;;19.23;;
12288;SDS011;6207;49.308;7.336;2022-12-18T07:52:34;22.47;;;20.47;;
12288;SDS011;6207;49.308;7.336;2022-12-18T07:55:00;20.97;;;19.27;;
12288;SDS011;6207;49.308;7.336;2022-12-18T07:57:27;23.97;;;21.67;;
12288;SDS011;6207;49.308;7.336;2022-12-18T08:00:14;22.33;;;20.53;;
12288;SDS011;6207;49.308;7.336;2022-12-18T08:02:41;26.00;;;23.53;;
12288;SDS011;6207;49.308;7.336;2022-12-18T08:05:08;31.13;;;25.87;;
12288;SDS011;6207;49.308;7.336;2022-12-18T08:07:35;22.90;;;20.80;;
12288;SDS011;6207;49.308;7.336;2022-12-18T08:10:01;20.97;;;19.40;;
12288;SDS011;6207;49.308;7.336;2022-12-18T08:12:29;20.27;;;18.60;;
12288;SDS011;6207;49.308;7.336;2022-12-18T08:14:55;21.93;;;19.83;;
12288;SDS011;6207;49.308;7.336;2022-12-18T08:17:22;20.67;;;19.00;;
12288;SDS011;6207;49.308;7.336;2022-12-18T08:19:49;24.60;;;22.23;;
12288;SDS011;6207;49.308;7.336;2022-12-18T08:22:16;24.13;;;21.93;;
12288;SDS011;6207;49.308;7.336;2022-12-18T08:24:42;21.10;;;19.53;;
12288;SDS011;6207;49.308;7.336;2022-12-18T08:27:09;23.00;;;20.87;;
12288;SDS011;6207;49.308;7.336;2022-12-18T08:29:55;26.07;;;23.53;;
12288;SDS011;6207;49.308;7.336;2022-12-18T08:32:22;27.83;;;25.17;;
12288;SDS011;6207;49.308;7.336;2022-12-18T08:34:50;29.87;;;26.80;;
12288;SDS011;6207;49.308;7.336;2022-12-18T08:37:16;26.33;;;24.07;;
12288;SDS011;6207;49.308;7.336;2022-12-18T08:39:43;25.83;;;22.73;;
12288;SDS011;6207;49.308;7.336;2022-12-18T08:42:10;30.07;;;24.77;;
12288;SDS011;6207;49.308;7.336;2022-12-18T08:44:56;37.67;;;28.17;;
12288;SDS011;6207;49.308;7.336;2022-12-18T08:47:22;43.67;;;29.57;;
12288;SDS011;6207;49.308;7.336;2022-12-18T08:49:49;56.77;;;31.10;;
12288;SDS011;6207;49.308;7.336;2022-12-18T08:52:16;47.17;;;34.07;;
12288;SDS011;6207;49.308;7.336;2022-12-18T08:54:43;59.70;;;35.07;;
12288;SDS011;6207;49.308;7.336;2022-12-18T08:57:10;47.43;;;30.77;;
12288;SDS011;6207;49.308;7.336;2022-12-18T08:59:37;39.67;;;28.90;;
12288;SDS011;6207;49.308;7.336;2022-12-18T09:02:04;36.37;;;28.03;;
12288;SDS011;6207;49.308;7.336;2022-12-18T09:04:31;44.10;;;29.63;;
12288;SDS011;6207;49.308;7.336;2022-12-18T09:06:58;49.13;;;32.00;;
12288;SDS011;6207;49.308;7.336;2022-12-18T09:09:25;46.57;;;30.20;;
12288;SDS011;6207;49.308;7.336;2022-12-18T09:11:51;46.87;;;31.53;;
12288;SDS011;6207;49.308;7.336;2022-12-18T09:14:18;44.23;;;29.23;;
12288;SDS011;6207;49.308;7.336;2022-12-18T09:16:45;30.07;;;25.90;;
12288;SDS011;6207;49.308;7.336;2022-12-18T09:19:12;34.63;;;27.27;;
12288;SDS011;6207;49.308;7.336;2022-12-18T09:21:39;37.97;;;30.00;;
12288;SDS011;6207;49.308;7.336;2022-12-18T09:24:13;38.97;;;28.23;;
12288;SDS011;6207;49.308;7.336;2022-12-18T09:26:40;41.87;;;28.33;;
12288;SDS011;6207;49.308;7.336;2022-12-18T09:29:12;40.33;;;29.40;;
12288;SDS011;6207;49.308;7.336;2022-12-18T09:31:38;39.77;;;30.27;;
12288;SDS011;6207;49.308;7.336;2022-12-18T09:34:05;35.60;;;29.57;;
12288;SDS011;6207;49.308;7.336;2022-12-18T09:36:32;44.87;;;32.13;;
12288;SDS011;6207;49.308;7.336;2022-12-18T09:38:59;37.97;;;30.37;;
12288;SDS011;6207;49.308;7.336;2022-12-18T09:44:05;45.77;;;32.07;;
12288;SDS011;6207;49.308;7.336;2022-12-18T09:46:40;38.83;;;28.60;;
12288;SDS011;6207;49.308;7.336;2022-12-18T09:49:14;39.73;;;31.27;;
12288;SDS011;6207;49.308;7.336;2022-12-18T09:54:39;34.20;;;28.40;;
12288;SDS011;6207;49.308;7.336;2022-12-18T09:57:15;43.07;;;31.57;;
12288;SDS011;6207;49.308;7.336;2022-12-18T09:59:48;34.73;;;29.57;;
12288;SDS011;6207;49.308;7.336;2022-12-18T10:02:21;41.10;;;32.13;;
12288;SDS011;6207;49.308;7.336;2022-12-18T10:05:06;48.80;;;33.03;;
12288;SDS011;6207;49.308;7.336;2022-12-18T10:10:51;51.40;;;35.63;;
12288;SDS011;6207;49.308;7.336;2022-12-18T10:16:00;36.37;;;30.43;;
12288;SDS011;6207;49.308;7.336;2022-12-18T10:21:27;48.27;;;33.73;;
12288;SDS011;6207;49.308;7.336;2022-12-18T10:24:08;49.13;;;34.57;;
12288;SDS011;6207;49.308;7.336;2022-12-18T10:29:41;50.63;;;34.63;;
12288;SDS011;6207;49.308;7.336;2022-12-18T10:32:14;31.30;;;28.07;;
12288;SDS011;6207;49.308;7.336;2022-12-18T10:34:46;44.93;;;32.33;;
12288;SDS011;6207;49.308;7.336;2022-12-18T10:37:15;35.70;;;30.77;;
12288;SDS011;6207;49.308;7.336;2022-12-18T10:39:45;59.40;;;39.20;;
12288;SDS011;6207;49.308;7.336;2022-12-18T10:42:17;54.37;;;39.50;;
12288;SDS011;6207;49.308;7.336;2022-12-18T10:44:45;55.17;;;36.67;;
12288;SDS011;6207;49.308;7.336;2022-12-18T10:47:14;35.93;;;30.33;;
12288;SDS011;6207;49.308;7.336;2022-12-18T10:49:48;67.87;;;43.93;;
12288;SDS011;6207;49.308;7.336;2022-12-18T10:55:05;53.77;;;39.57;;
12288;SDS011;6207;49.308;7.336;2022-12-18T10:57:42;55.33;;;36.57;;
12288;SDS011;6207;49.308;7.336;2022-12-18T11:00:20;49.73;;;33.37;;
12288;SDS011;6207;49.308;7.336;2022-12-18T11:02:53;45.00;;;31.60;;
12288;SDS011;6207;49.308;7.336;2022-12-18T11:05:26;46.43;;;35.70;;
12288;SDS011;6207;49.308;7.336;2022-12-18T11:07:54;49.60;;;34.93;;
12288;SDS011;6207;49.308;7.336;2022-12-18T11:10:30;44.83;;;34.40;;
12288;SDS011;6207;49.308;7.336;2022-12-18T11:13:09;49.73;;;36.27;;
12288;SDS011;6207;49.308;7.336;2022-12-18T11:15:44;57.00;;;38.83;;
12288;SDS011;6207;49.308;7.336;2022-12-18T11:18:25;41.57;;;32.20;;
12288;SDS011;6207;49.308;7.336;2022-12-18T11:20:59;42.47;;;35.30;;
12288;SDS011;6207;49.308;7.336;2022-12-18T11:23:36;45.43;;;32.73;;
12288;SDS011;6207;49.308;7.336;2022-12-18T11:26:10;57.40;;;39.90;;
12288;SDS011;6207;49.308;7.336;2022-12-18T11:28:38;30.40;;;27.40;;
12288;SDS011;6207;49.308;7.336;2022-12-18T11:34:05;42.17;;;33.57;;
12288;SDS011;6207;49.308;7.336;2022-12-18T11:36:59;57.83;;;39.57;;
12288;SDS011;6207;49.308;7.336;2022-12-18T11:39:31;42.83;;;32.60;;
12288;SDS011;6207;49.308;7.336;2022-12-18T11:42:09;58.50;;;41.60;;
12288;SDS011;6207;49.308;7.336;2022-12-18T11:44:52;49.33;;;36.60;;
12288;SDS011;6207;49.308;7.336;2022-12-18T11:49:56;27.53;;;24.73;;
12288;SDS011;6207;49.308;7.336;2022-12-18T11:55:04;26.10;;;23.80;;
12288;SDS011;6207;49.308;7.336;2022-12-18T12:00:44;47.00;;;34.53;;
12288;SDS011;6207;49.308;7.336;2022-12-18T12:03:24;50.57;;;38.80;;
12288;SDS011;6207;49.308;7.336;2022-12-18T12:06:18;42.33;;;34.73;;
12288;SDS011;6207;49.308;7.336;2022-12-18T12:09:19;34.00;;;29.23;;
12288;SDS011;6207;49.308;7.336;2022-12-18T12:12:14;30.63;;;27.37;;
12288;SDS011;6207;49.308;7.336;2022-12-18T12:15:03;54.07;;;38.60;;
12288;SDS011;6207;49.308;7.336;2022-12-18T12:17:45;40.20;;;33.63;;
12288;SDS011;6207;49.308;7.336;2022-12-18T12:22:59;39.60;;;32.40;;
12288;SDS011;6207;49.308;7.336;2022-12-18T12:25:46;36.27;;;29.33;;
12288;SDS011;6207;49.308;7.336;2022-12-18T12:34:06;30.73;;;25.60;;
12288;SDS011;6207;49.308;7.336;2022-12-18T12:39:29;50.63;;;36.93;;
12288;SDS011;6207;49.308;7.336;2022-12-18T12:41:59;30.00;;;25.47;;
12288;SDS011;6207;49.308;7.336;2022-12-18T12:44:56;41.43;;;31.27;;
12288;SDS011;6207;49.308;7.336;2022-12-18T12:47:28;40.07;;;31.47;;
12288;SDS011;6207;49.308;7.336;2022-12-18T12:50:01;31.13;;;27.80;;
12288;SDS011;6207;49.308;7.336;2022-12-18T12:52:35;40.10;;;31.03;;
12288;SDS011;6207;49.308;7.336;2022-12-18T12:55:07;33.30;;;28.47;;
12288;SDS011;6207;49.308;7.336;2022-12-18T13:00:56;28.63;;;25.63;;
12288;SDS011;6207;49.308;7.336;2022-12-18T13:06:46;35.47;;;29.63;;
12288;SDS011;6207;49.308;7.336;2022-12-18T13:09:20;40.03;;;30.30;;
12288;SDS011;6207;49.308;7.336;2022-12-18T13:11:48;42.30;;;31.93;;
12288;SDS011;6207;49.308;7.336;2022-12-18T13:14:34;39.53;;;30.67;;
12288;SDS011;6207;49.308;7.336;2022-12-18T13:19:48;40.03;;;29.90;;
12288;SDS011;6207;49.308;7.336;2022-12-18T13:22:28;31.37;;;28.00;;
12288;SDS011;6207;49.308;7.336;2022-12-18T13:25:50;31.70;;;28.27;;
12288;SDS011;6207;49.308;7.336;2022-12-18T13:28:09;36.63;;;28.77;;
12288;SDS011;6207;49.308;7.336;2022-12-18T13:38:36;30.47;;;27.17;;
12288;SDS011;6207;49.308;7.336;2022-12-18T13:43:47;20.60;;;18.83;;
12288;SDS011;6207;49.308;7.336;2022-12-18T13:51:29;38.77;;;30.23;;
12288;SDS011;6207;49.308;7.336;2022-12-18T13:56:47;36.20;;;30.20;;
12288;SDS011;6207;49.308;7.336;2022-12-18T13:59:21;33.73;;;23.03;;
12288;SDS011;6207;49.308;7.336;2022-12-18T14:01:59;29.67;;;26.43;;
12288;SDS011;6207;49.308;7.336;2022-12-18T14:04:33;26.87;;;23.97;;
12288;SDS011;6207;49.308;7.336;2022-12-18T14:07:05;24.90;;;22.37;;
12288;SDS011;6207;49.308;7.336;2022-12-18T14:09:42;30.80;;;27.53;;
12288;SDS011;6207;49.308;7.336;2022-12-18T14:12:20;26.70;;;24.00;;
12288;SDS011;6207;49.308;7.336;2022-12-18T14:15:17;27.13;;;24.17;;
12288;SDS011;6207;49.308;7.336;2022-12-18T14:18:03;34.37;;;28.80;;
12288;SDS011;6207;49.308;7.336;2022-12-18T14:20:55;34.67;;;29.43;;
12288;SDS011;6207;49.308;7.336;2022-12-18T14:23:38;18.97;;;17.60;;
12288;SDS011;6207;49.308;7.336;2022-12-18T14:28:56;31.37;;;26.30;;
12288;SDS011;6207;49.308;7.336;2022-12-18T14:31:24;32.47;;;28.37;;
12288;SDS011;6207;49.308;7.336;2022-12-18T14:33:52;41.70;;;32.83;;
12288;SDS011;6207;49.308;7.336;2022-12-18T14:36:21;37.63;;;28.77;;
12288;SDS011;6207;49.308;7.336;2022-12-18T14:38:53;30.33;;;27.13;;
12288;SDS011;6207;49.308;7.336;2022-12-18T14:41:21;32.43;;;24.43;;
12288;SDS011;6207;49.308;7.336;2022-12-18T14:43:50;32.70;;;25.60;;
12288;SDS011;6207;49.308;7.336;2022-12-18T14:46:29;28.87;;;25.80;;
12288;SDS011;6207;49.308;7.336;2022-12-18T14:49:18;26.43;;;23.73;;
12288;SDS011;6207;49.308;7.336;2022-12-18T14:52:04;22.13;;;20.50;;
12288;SDS011;6207;49.308;7.336;2022-12-18T14:54:45;37.63;;;30.10;;
12288;SDS011;6207;49.308;7.336;2022-12-18T14:57:20;36.23;;;29.07;;
12288;SDS011;6207;49.308;7.336;2022-12-18T14:59:50;39.07;;;29.77;;
12288;SDS011;6207;49.308;7.336;2022-12-18T15:02:22;32.87;;;27.67;;
12288;SDS011;6207;49.308;7.336;2022-12-18T15:05:02;30.23;;;27.07;;
12288;SDS011;6207;49.308;7.336;2022-12-18T15:07:43;27.80;;;25.10;;
12288;SDS011;6207;49.308;7.336;2022-12-18T15:10:23;36.43;;;30.97;;
12288;SDS011;6207;49.308;7.336;2022-12-18T15:20:51;41.77;;;31.97;;
12288;SDS011;6207;49.308;7.336;2022-12-18T15:23:33;31.60;;;27.47;;
12288;SDS011;6207;49.308;7.336;2022-12-18T15:26:11;38.17;;;28.53;;
12288;SDS011;6207;49.308;7.336;2022-12-18T15:34:13;39.73;;;28.90;;
12288;SDS011;6207;49.308;7.336;2022-12-18T15:36:46;35.73;;;28.13;;
12288;SDS011;6207;49.308;7.336;2022-12-18T15:39:14;41.13;;;28.73;;
12288;SDS011;6207;49.308;7.336;2022-12-18T15:41:48;40.87;;;29.57;;
12288;SDS011;6207;49.308;7.336;2022-12-18T15:45:13;37.43;;;28.60;;
12288;SDS011;6207;49.308;7.336;2022-12-18T15:47:47;34.80;;;26.90;;
12288;SDS011;6207;49.308;7.336;2022-12-18T15:50:14;31.93;;;26.03;;
12288;SDS011;6207;49.308;7.336;2022-12-18T15:52:42;41.33;;;31.60;;
12288;SDS011;6207;49.308;7.336;2022-12-18T15:55:12;30.07;;;26.13;;
12288;SDS011;6207;49.308;7.336;2022-12-18T15:57:58;36.20;;;28.77;;
12288;SDS011;6207;49.308;7.336;2022-12-18T16:00:25;18.00;;;16.90;;
12288;SDS011;6207;49.308;7.336;2022-12-18T16:02:53;38.07;;;27.70;;
12288;SDS011;6207;49.308;7.336;2022-12-18T16:05:20;41.80;;;29.47;;
12288;SDS011;6207;49.308;7.336;2022-12-18T16:07:49;34.87;;;28.30;;
12288;SDS011;6207;49.308;7.336;2022-12-18T16:10:16;36.40;;;27.60;;
12288;SDS011;6207;49.308;7.336;2022-12-18T16:12:43;35.70;;;29.00;;
12288;SDS011;6207;49.308;7.336;2022-12-18T16:15:11;34.03;;;28.23;;
12288;SDS011;6207;49.308;7.336;2022-12-18T16:17:46;31.23;;;25.60;;
12288;SDS011;6207;49.308;7.336;2022-12-18T16:20:15;43.27;;;31.33;;
12288;SDS011;6207;49.308;7.336;2022-12-18T16:22:43;38.83;;;28.03;;
12288;SDS011;6207;49.308;7.336;2022-12-18T16:27:45;35.80;;;27.37;;
12288;SDS011;6207;49.308;7.336;2022-12-18T16:30:14;40.27;;;30.57;;
12288;SDS011;6207;49.308;7.336;2022-12-18T16:32:43;36.70;;;27.43;;
12288;SDS011;6207;49.308;7.336;2022-12-18T16:35:10;38.67;;;29.00;;
12288;SDS011;6207;49.308;7.336;2022-12-18T16:37:39;35.70;;;28.63;;
12288;SDS011;6207;49.308;7.336;2022-12-18T16:40:07;33.53;;;27.50;;
12288;SDS011;6207;49.308;7.336;2022-12-18T16:42:36;36.90;;;28.00;;
12288;SDS011;6207;49.308;7.336;2022-12-18T16:45:04;32.00;;;26.33;;
12288;SDS011;6207;49.308;7.336;2022-12-18T16:47:32;30.37;;;26.47;;
12288;SDS011;6207;49.308;7.336;2022-12-18T16:50:00;35.50;;;27.00;;
12288;SDS011;6207;49.308;7.336;2022-12-18T16:52:27;32.67;;;25.87;;
12288;SDS011;6207;49.308;7.336;2022-12-18T16:54:55;30.33;;;24.93;;